sensor_id;sensor_type;location;lat;lon;timestamp;P1;durP1;ratioP1;P2;durP2;ratioP2
14373;SDS011;7270;49.004;12.066;2023-03-25T00:00:48;1.00;;;1.00;;
14373;SDS011;7270;49.004;12.066;2023-03-25T00:03:18;1.10;;;1.10;;
14373;SDS011;7270;49.004;12.066;2023-03-25T00:05:46;1.00;;;1.00;;
14373;SDS011;7270;49.004;12.066;2023-03-25T00:08:12;1.17;;;1.17;;
14373;SDS011;7270;49.004;12.066;2023-03-25T00:10:38;1.10;;;1.10;;
14373;SDS011;7270;49.004;12.066;2023-03-25T00:13:05;1.10;;;1.10;;
14373;SDS011;7270;49.004;12.066;2023-03-25T00:15:32;1.20;;;1.20;;
14373;SDS011;7270;49.004;12.066;2023-03-25T00:17:58;1.20;;;1.20;;
14373;SDS011;7270;49.004;12.066;2023-03-25T00:20:27;1.10;;;1.10;;
14373;SDS011;7270;49.004;12.066;2023-03-25T00:22:53;1.20;;;1.20;;
14373;SDS011;7270;49.004;12.066;2023-03-25T00:25:20;1.10;;;1.10;;
14373;SDS011;7270;49.004;12.066;2023-03-25T00:27:46;1.10;;;1.10;;
14373;SDS011;7270;49.004;12.066;2023-03-25T00:30:15;1.10;;;1.10;;
14373;SDS011;7270;49.004;12.066;2023-03-25T00:32:42;1.10;;;1.10;;
14373;SDS011;7270;49.004;12.066;2023-03-25T00:35:09;1.00;;;1.00;;
14373;SDS011;7270;49.004;12.066;2023-03-25T00:37:39;1.10;;;1.10;;
14373;SDS011;7270;49.004;12.066;2023-03-25T00:40:05;1.10;;;1.10;;
14373;SDS011;7270;49.004;12.066;2023-03-25T00:42:32;1.10;;;1.10;;
14373;SDS011;7270;49.004;12.066;2023-03-25T00:44:59;1.20;;;1.20;;
14373;SDS011;7270;49.004;12.066;2023-03-25T00:47:26;1.33;;;1.23;;
14373;SDS011;7270;49.004;12.066;2023-03-25T00:49:52;1.10;;;1.10;;
14373;SDS011;7270;49.004;12.066;2023-03-25T00:52:18;1.00;;;1.00;;
14373;SDS011;7270;49.004;12.066;2023-03-25T00:54:48;1.10;;;1.10;;
14373;SDS011;7270;49.004;12.066;2023-03-25T00:57:16;1.20;;;1.20;;
14373;SDS011;7270;49.004;12.066;2023-03-25T00:59:42;1.00;;;1.00;;
14373;SDS011;7270;49.004;12.066;2023-03-25T01:02:09;1.00;;;1.00;;
14373;SDS011;7270;49.004;12.066;2023-03-25T01:04:35;1.10;;;1.10;;
14373;SDS011;7270;49.004;12.066;2023-03-25T01:07:03;1.00;;;1.00;;
14373;SDS011;7270;49.004;12.066;2023-03-25T01:09:29;1.07;;;1.07;;
14373;SDS011;7270;49.004;12.066;2023-03-25T01:11:57;1.10;;;1.10;;
14373;SDS011;7270;49.004;12.066;2023-03-25T01:14:23;1.07;;;1.07;;
14373;SDS011;7270;49.004;12.066;2023-03-25T01:16:51;1.07;;;1.07;;
14373;SDS011;7270;49.004;12.066;2023-03-25T01:19:18;1.00;;;1.00;;
14373;SDS011;7270;49.004;12.066;2023-03-25T01:21:44;1.00;;;1.00;;
14373;SDS011;7270;49.004;12.066;2023-03-25T01:24:11;1.00;;;1.00;;
14373;SDS011;7270;49.004;12.066;2023-03-25T01:26:38;1.00;;;1.00;;
14373;SDS011;7270;49.004;12.066;2023-03-25T01:29:09;1.10;;;1.10;;
14373;SDS011;7270;49.004;12.066;2023-03-25T01:31:35;1.10;;;1.10;;
14373;SDS011;7270;49.004;12.066;2023-03-25T01:34:01;0.90;;;0.90;;
14373;SDS011;7270;49.004;12.066;2023-03-25T01:36:28;1.10;;;1.10;;
14373;SDS011;7270;49.004;12.066;2023-03-25T01:38:54;1.10;;;1.10;;
14373;SDS011;7270;49.004;12.066;2023-03-25T01:41:22;1.10;;;1.10;;
14373;SDS011;7270;49.004;12.066;2023-03-25T01:44:04;1.10;;;1.10;;
14373;SDS011;7270;49.004;12.066;2023-03-25T01:46:32;1.50;;;1.40;;
14373;SDS011;7270;49.004;12.066;2023-03-25T01:48:59;1.50;;;1.40;;
14373;SDS011;7270;49.004;12.066;2023-03-25T01:51:28;1.50;;;1.40;;
14373;SDS011;7270;49.004;12.066;2023-03-25T01:53:58;1.30;;;1.20;;
14373;SDS011;7270;49.004;12.066;2023-03-25T01:56:26;1.50;;;1.40;;
14373;SDS011;7270;49.004;12.066;2023-03-25T01:58:55;1.40;;;1.30;;
14373;SDS011;7270;49.004;12.066;2023-03-25T02:01:23;1.50;;;1.40;;
14373;SDS011;7270;49.004;12.066;2023-03-25T02:03:52;1.40;;;1.30;;
14373;SDS011;7270;49.004;12.066;2023-03-25T02:06:19;1.50;;;1.40;;
14373;SDS011;7270;49.004;12.066;2023-03-25T02:08:48;1.50;;;1.40;;
14373;SDS011;7270;49.004;12.066;2023-03-25T02:11:15;1.30;;;1.20;;
14373;SDS011;7270;49.004;12.066;2023-03-25T02:13:41;1.20;;;1.20;;
14373;SDS011;7270;49.004;12.066;2023-03-25T02:18:56;1.23;;;1.20;;
14373;SDS011;7270;49.004;12.066;2023-03-25T02:27:11;1.40;;;1.30;;
14373;SDS011;7270;49.004;12.066;2023-03-25T02:29:46;1.40;;;1.30;;
14373;SDS011;7270;49.004;12.066;2023-03-25T02:32:20;1.20;;;1.20;;
14373;SDS011;7270;49.004;12.066;2023-03-25T02:35:02;1.20;;;1.20;;
14373;SDS011;7270;49.004;12.066;2023-03-25T02:40:15;1.10;;;1.10;;
14373;SDS011;7270;49.004;12.066;2023-03-25T02:42:45;1.30;;;1.20;;
14373;SDS011;7270;49.004;12.066;2023-03-25T02:45:13;1.20;;;1.20;;
14373;SDS011;7270;49.004;12.066;2023-03-25T02:47:41;1.40;;;1.30;;
14373;SDS011;7270;49.004;12.066;2023-03-25T02:50:10;1.20;;;1.20;;
14373;SDS011;7270;49.004;12.066;2023-03-25T02:52:39;1.40;;;1.30;;
14373;SDS011;7270;49.004;12.066;2023-03-25T02:55:09;1.20;;;1.20;;
14373;SDS011;7270;49.004;12.066;2023-03-25T02:57:38;1.40;;;1.30;;
14373;SDS011;7270;49.004;12.066;2023-03-25T03:00:06;1.40;;;1.30;;
14373;SDS011;7270;49.004;12.066;2023-03-25T03:02:38;1.20;;;1.20;;
14373;SDS011;7270;49.004;12.066;2023-03-25T03:05:18;1.00;;;1.00;;
14373;SDS011;7270;49.004;12.066;2023-03-25T03:07:45;1.30;;;1.20;;
14373;SDS011;7270;49.004;12.066;2023-03-25T03:10:15;1.00;;;1.00;;
14373;SDS011;7270;49.004;12.066;2023-03-25T03:12:50;1.20;;;1.20;;
14373;SDS011;7270;49.004;12.066;2023-03-25T03:15:26;1.20;;;1.20;;
14373;SDS011;7270;49.004;12.066;2023-03-25T03:17:59;1.20;;;1.20;;
14373;SDS011;7270;49.004;12.066;2023-03-25T03:20:32;1.10;;;1.10;;
14373;SDS011;7270;49.004;12.066;2023-03-25T03:23:01;1.10;;;1.10;;
14373;SDS011;7270;49.004;12.066;2023-03-25T03:25:31;1.30;;;1.20;;
14373;SDS011;7270;49.004;12.066;2023-03-25T03:28:01;1.10;;;1.10;;
14373;SDS011;7270;49.004;12.066;2023-03-25T03:30:30;1.10;;;1.10;;
14373;SDS011;7270;49.004;12.066;2023-03-25T03:32:59;1.10;;;1.10;;
14373;SDS011;7270;49.004;12.066;2023-03-25T03:35:29;1.10;;;1.10;;
14373;SDS011;7270;49.004;12.066;2023-03-25T03:37:57;1.10;;;1.10;;
14373;SDS011;7270;49.004;12.066;2023-03-25T03:40:25;1.20;;;1.20;;
14373;SDS011;7270;49.004;12.066;2023-03-25T03:42:53;1.10;;;1.10;;
14373;SDS011;7270;49.004;12.066;2023-03-25T03:45:22;1.10;;;1.10;;
14373;SDS011;7270;49.004;12.066;2023-03-25T03:47:50;1.20;;;1.20;;
14373;SDS011;7270;49.004;12.066;2023-03-25T03:50:19;1.20;;;1.20;;
14373;SDS011;7270;49.004;12.066;2023-03-25T03:52:46;1.20;;;1.20;;
14373;SDS011;7270;49.004;12.066;2023-03-25T03:55:16;1.30;;;1.30;;
14373;SDS011;7270;49.004;12.066;2023-03-25T03:57:46;1.00;;;1.00;;
14373;SDS011;7270;49.004;12.066;2023-03-25T04:00:14;1.10;;;1.10;;
14373;SDS011;7270;49.004;12.066;2023-03-25T04:02:44;1.10;;;1.10;;
14373;SDS011;7270;49.004;12.066;2023-03-25T04:05:12;1.10;;;1.10;;
14373;SDS011;7270;49.004;12.066;2023-03-25T04:07:40;1.20;;;1.20;;
14373;SDS011;7270;49.004;12.066;2023-03-25T04:10:10;1.50;;;1.40;;
14373;SDS011;7270;49.004;12.066;2023-03-25T04:12:39;1.40;;;1.30;;
14373;SDS011;7270;49.004;12.066;2023-03-25T04:15:07;0.90;;;0.90;;
14373;SDS011;7270;49.004;12.066;2023-03-25T04:17:33;0.90;;;0.90;;
14373;SDS011;7270;49.004;12.066;2023-03-25T04:20:01;0.90;;;0.90;;
14373;SDS011;7270;49.004;12.066;2023-03-25T04:22:32;1.00;;;1.00;;
14373;SDS011;7270;49.004;12.066;2023-03-25T04:25:01;1.00;;;1.00;;
14373;SDS011;7270;49.004;12.066;2023-03-25T04:27:28;0.90;;;0.90;;
14373;SDS011;7270;49.004;12.066;2023-03-25T04:29:56;1.00;;;1.00;;
14373;SDS011;7270;49.004;12.066;2023-03-25T04:32:25;0.90;;;0.90;;
14373;SDS011;7270;49.004;12.066;2023-03-25T04:34:52;1.00;;;1.00;;
14373;SDS011;7270;49.004;12.066;2023-03-25T04:37:23;0.90;;;0.90;;
14373;SDS011;7270;49.004;12.066;2023-03-25T04:39:49;1.00;;;1.00;;
14373;SDS011;7270;49.004;12.066;2023-03-25T04:42:16;1.00;;;1.00;;
14373;SDS011;7270;49.004;12.066;2023-03-25T04:44:42;1.00;;;1.00;;
14373;SDS011;7270;49.004;12.066;2023-03-25T04:47:09;1.00;;;1.00;;
14373;SDS011;7270;49.004;12.066;2023-03-25T04:49:39;0.90;;;0.90;;
14373;SDS011;7270;49.004;12.066;2023-03-25T04:52:06;0.90;;;0.90;;
14373;SDS011;7270;49.004;12.066;2023-03-25T04:54:34;1.00;;;1.00;;
14373;SDS011;7270;49.004;12.066;2023-03-25T04:57:02;0.90;;;0.90;;
14373;SDS011;7270;49.004;12.066;2023-03-25T04:59:28;0.90;;;0.90;;
14373;SDS011;7270;49.004;12.066;2023-03-25T05:01:55;0.90;;;0.90;;
14373;SDS011;7270;49.004;12.066;2023-03-25T05:04:21;1.10;;;1.10;;
14373;SDS011;7270;49.004;12.066;2023-03-25T05:06:48;1.00;;;1.00;;
14373;SDS011;7270;49.004;12.066;2023-03-25T05:09:17;0.90;;;0.90;;
14373;SDS011;7270;49.004;12.066;2023-03-25T05:11:45;0.90;;;0.90;;
14373;SDS011;7270;49.004;12.066;2023-03-25T05:14:12;1.10;;;1.10;;
14373;SDS011;7270;49.004;12.066;2023-03-25T05:16:39;1.00;;;1.00;;
14373;SDS011;7270;49.004;12.066;2023-03-25T05:19:06;0.97;;;0.97;;
14373;SDS011;7270;49.004;12.066;2023-03-25T05:21:32;1.00;;;1.00;;
14373;SDS011;7270;49.004;12.066;2023-03-25T05:24:00;1.00;;;1.00;;
14373;SDS011;7270;49.004;12.066;2023-03-25T05:26:26;1.00;;;1.00;;
14373;SDS011;7270;49.004;12.066;2023-03-25T05:28:59;1.00;;;1.00;;
14373;SDS011;7270;49.004;12.066;2023-03-25T05:31:25;1.00;;;1.00;;
14373;SDS011;7270;49.004;12.066;2023-03-25T05:33:52;0.90;;;0.90;;
14373;SDS011;7270;49.004;12.066;2023-03-25T05:36:19;0.90;;;0.90;;
14373;SDS011;7270;49.004;12.066;2023-03-25T05:38:45;1.00;;;1.00;;
14373;SDS011;7270;49.004;12.066;2023-03-25T05:41:12;0.90;;;0.90;;
14373;SDS011;7270;49.004;12.066;2023-03-25T05:43:40;1.00;;;1.00;;
14373;SDS011;7270;49.004;12.066;2023-03-25T05:46:13;1.00;;;1.00;;
14373;SDS011;7270;49.004;12.066;2023-03-25T05:48:39;0.90;;;0.90;;
14373;SDS011;7270;49.004;12.066;2023-03-25T05:51:09;1.00;;;1.00;;
14373;SDS011;7270;49.004;12.066;2023-03-25T05:53:37;0.90;;;0.90;;
14373;SDS011;7270;49.004;12.066;2023-03-25T05:56:04;1.00;;;1.00;;
14373;SDS011;7270;49.004;12.066;2023-03-25T05:58:30;0.90;;;0.90;;
14373;SDS011;7270;49.004;12.066;2023-03-25T06:00:57;1.00;;;1.00;;
14373;SDS011;7270;49.004;12.066;2023-03-25T06:03:25;1.00;;;1.00;;
14373;SDS011;7270;49.004;12.066;2023-03-25T06:05:52;0.90;;;0.90;;
14373;SDS011;7270;49.004;12.066;2023-03-25T06:08:18;1.00;;;1.00;;
14373;SDS011;7270;49.004;12.066;2023-03-25T06:10:49;0.90;;;0.90;;
14373;SDS011;7270;49.004;12.066;2023-03-25T06:13:18;1.00;;;1.00;;
14373;SDS011;7270;49.004;12.066;2023-03-25T06:15:45;1.00;;;1.00;;
14373;SDS011;7270;49.004;12.066;2023-03-25T06:18:12;0.90;;;0.90;;
14373;SDS011;7270;49.004;12.066;2023-03-25T06:20:40;1.00;;;1.00;;
14373;SDS011;7270;49.004;12.066;2023-03-25T06:23:06;1.00;;;1.00;;
14373;SDS011;7270;49.004;12.066;2023-03-25T06:25:33;1.10;;;1.10;;
14373;SDS011;7270;49.004;12.066;2023-03-25T06:28:00;1.00;;;1.00;;
14373;SDS011;7270;49.004;12.066;2023-03-25T06:30:28;1.00;;;1.00;;
14373;SDS011;7270;49.004;12.066;2023-03-25T06:32:54;1.00;;;1.00;;
14373;SDS011;7270;49.004;12.066;2023-03-25T06:35:22;1.00;;;1.00;;
14373;SDS011;7270;49.004;12.066;2023-03-25T06:37:50;1.07;;;1.07;;
14373;SDS011;7270;49.004;12.066;2023-03-25T06:40:16;1.00;;;1.00;;
14373;SDS011;7270;49.004;12.066;2023-03-25T06:42:44;0.90;;;0.90;;
14373;SDS011;7270;49.004;12.066;2023-03-25T06:45:10;1.03;;;1.03;;
14373;SDS011;7270;49.004;12.066;2023-03-25T06:47:37;1.10;;;1.10;;
14373;SDS011;7270;49.004;12.066;2023-03-25T06:50:04;1.00;;;1.00;;
14373;SDS011;7270;49.004;12.066;2023-03-25T06:52:31;1.00;;;1.00;;
14373;SDS011;7270;49.004;12.066;2023-03-25T06:54:58;0.90;;;0.90;;
14373;SDS011;7270;49.004;12.066;2023-03-25T06:57:25;1.00;;;1.00;;
14373;SDS011;7270;49.004;12.066;2023-03-25T06:59:51;0.97;;;0.97;;
14373;SDS011;7270;49.004;12.066;2023-03-25T07:02:17;1.00;;;1.00;;
14373;SDS011;7270;49.004;12.066;2023-03-25T07:04:44;0.93;;;0.93;;
14373;SDS011;7270;49.004;12.066;2023-03-25T07:07:10;0.97;;;0.97;;
14373;SDS011;7270;49.004;12.066;2023-03-25T07:09:36;0.90;;;0.90;;
14373;SDS011;7270;49.004;12.066;2023-03-25T07:12:04;0.90;;;0.90;;
14373;SDS011;7270;49.004;12.066;2023-03-25T07:14:30;0.90;;;0.90;;
14373;SDS011;7270;49.004;12.066;2023-03-25T07:16:57;1.00;;;1.00;;
14373;SDS011;7270;49.004;12.066;2023-03-25T07:19:23;0.90;;;0.90;;
14373;SDS011;7270;49.004;12.066;2023-03-25T07:21:50;1.00;;;1.00;;
14373;SDS011;7270;49.004;12.066;2023-03-25T07:24:16;1.00;;;1.00;;
14373;SDS011;7270;49.004;12.066;2023-03-25T07:26:42;1.00;;;1.00;;
14373;SDS011;7270;49.004;12.066;2023-03-25T07:29:10;0.90;;;0.90;;
14373;SDS011;7270;49.004;12.066;2023-03-25T07:31:38;1.00;;;1.00;;
14373;SDS011;7270;49.004;12.066;2023-03-25T07:34:05;0.90;;;0.90;;
14373;SDS011;7270;49.004;12.066;2023-03-25T07:36:32;1.00;;;1.00;;
14373;SDS011;7270;49.004;12.066;2023-03-25T07:38:58;1.00;;;1.00;;
14373;SDS011;7270;49.004;12.066;2023-03-25T07:41:25;1.00;;;1.00;;
14373;SDS011;7270;49.004;12.066;2023-03-25T07:43:51;1.00;;;1.00;;
14373;SDS011;7270;49.004;12.066;2023-03-25T07:46:19;1.00;;;1.00;;
14373;SDS011;7270;49.004;12.066;2023-03-25T07:48:45;1.00;;;1.00;;
14373;SDS011;7270;49.004;12.066;2023-03-25T07:51:11;0.90;;;0.90;;
14373;SDS011;7270;49.004;12.066;2023-03-25T07:53:38;0.90;;;0.90;;
14373;SDS011;7270;49.004;12.066;2023-03-25T07:56:08;1.00;;;1.00;;
14373;SDS011;7270;49.004;12.066;2023-03-25T07:58:35;1.00;;;1.00;;
14373;SDS011;7270;49.004;12.066;2023-03-25T08:01:01;0.90;;;0.90;;
14373;SDS011;7270;49.004;12.066;2023-03-25T08:03:29;1.10;;;1.10;;
14373;SDS011;7270;49.004;12.066;2023-03-25T08:05:58;1.00;;;1.00;;
14373;SDS011;7270;49.004;12.066;2023-03-25T08:08:25;1.00;;;1.00;;
14373;SDS011;7270;49.004;12.066;2023-03-25T08:10:54;1.30;;;1.20;;
14373;SDS011;7270;49.004;12.066;2023-03-25T08:13:20;1.20;;;1.20;;
14373;SDS011;7270;49.004;12.066;2023-03-25T08:15:47;1.10;;;1.10;;
14373;SDS011;7270;49.004;12.066;2023-03-25T08:18:13;1.10;;;1.10;;
14373;SDS011;7270;49.004;12.066;2023-03-25T08:20:41;1.10;;;1.10;;
14373;SDS011;7270;49.004;12.066;2023-03-25T08:23:07;1.20;;;1.20;;
14373;SDS011;7270;49.004;12.066;2023-03-25T08:25:34;1.10;;;1.10;;
14373;SDS011;7270;49.004;12.066;2023-03-25T08:28:00;1.10;;;1.10;;
14373;SDS011;7270;49.004;12.066;2023-03-25T08:30:27;1.10;;;1.10;;
14373;SDS011;7270;49.004;12.066;2023-03-25T08:32:53;1.10;;;1.10;;
14373;SDS011;7270;49.004;12.066;2023-03-25T08:35:20;1.10;;;1.10;;
14373;SDS011;7270;49.004;12.066;2023-03-25T08:37:47;1.17;;;1.17;;
14373;SDS011;7270;49.004;12.066;2023-03-25T08:40:14;1.10;;;1.10;;
14373;SDS011;7270;49.004;12.066;2023-03-25T08:42:42;1.10;;;1.10;;
14373;SDS011;7270;49.004;12.066;2023-03-25T08:45:09;1.17;;;1.17;;
14373;SDS011;7270;49.004;12.066;2023-03-25T08:47:36;1.10;;;1.10;;
14373;SDS011;7270;49.004;12.066;2023-03-25T08:50:03;1.23;;;1.20;;
14373;SDS011;7270;49.004;12.066;2023-03-25T08:52:29;1.00;;;1.00;;
14373;SDS011;7270;49.004;12.066;2023-03-25T08:54:57;1.00;;;1.00;;
14373;SDS011;7270;49.004;12.066;2023-03-25T08:59:52;1.10;;;1.10;;
14373;SDS011;7270;49.004;12.066;2023-03-25T09:02:19;1.10;;;1.10;;
14373;SDS011;7270;49.004;12.066;2023-03-25T09:04:46;1.10;;;1.10;;
14373;SDS011;7270;49.004;12.066;2023-03-25T09:07:13;1.10;;;1.10;;
14373;SDS011;7270;49.004;12.066;2023-03-25T09:09:39;1.03;;;1.03;;
14373;SDS011;7270;49.004;12.066;2023-03-25T09:12:07;1.00;;;1.00;;
14373;SDS011;7270;49.004;12.066;2023-03-25T09:14:33;1.10;;;1.10;;
14373;SDS011;7270;49.004;12.066;2023-03-25T09:17:00;1.10;;;1.10;;
14373;SDS011;7270;49.004;12.066;2023-03-25T09:19:26;1.00;;;1.00;;
14373;SDS011;7270;49.004;12.066;2023-03-25T09:21:52;1.00;;;1.00;;
14373;SDS011;7270;49.004;12.066;2023-03-25T09:24:19;1.00;;;1.00;;
14373;SDS011;7270;49.004;12.066;2023-03-25T09:26:46;1.00;;;1.00;;
14373;SDS011;7270;49.004;12.066;2023-03-25T09:29:14;1.00;;;1.00;;
14373;SDS011;7270;49.004;12.066;2023-03-25T09:31:40;4.13;;;4.00;;
14373;SDS011;7270;49.004;12.066;2023-03-25T09:34:06;44.93;;;42.00;;
14373;SDS011;7270;49.004;12.066;2023-03-25T09:36:33;243.20;;;221.70;;
14373;SDS011;7270;49.004;12.066;2023-03-25T09:38:59;307.73;;;283.23;;
14373;SDS011;7270;49.004;12.066;2023-03-25T09:41:29;390.03;;;356.27;;
14373;SDS011;7270;49.004;12.066;2023-03-25T09:44:01;1.37;;;1.30;;
14373;SDS011;7270;49.004;12.066;2023-03-25T09:46:31;1.10;;;1.10;;
14373;SDS011;7270;49.004;12.066;2023-03-25T09:48:58;70.83;;;67.27;;
14373;SDS011;7270;49.004;12.066;2023-03-25T09:51:25;1.00;;;1.00;;
14373;SDS011;7270;49.004;12.066;2023-03-25T09:53:54;1.00;;;1.00;;
14373;SDS011;7270;49.004;12.066;2023-03-25T09:56:23;1.10;;;1.10;;
14373;SDS011;7270;49.004;12.066;2023-03-25T09:58:53;1.00;;;1.00;;
14373;SDS011;7270;49.004;12.066;2023-03-25T10:01:23;1.00;;;1.00;;
14373;SDS011;7270;49.004;12.066;2023-03-25T10:03:56;1.00;;;1.00;;
14373;SDS011;7270;49.004;12.066;2023-03-25T10:06:23;1.00;;;1.00;;
14373;SDS011;7270;49.004;12.066;2023-03-25T10:08:52;1.10;;;1.10;;
14373;SDS011;7270;49.004;12.066;2023-03-25T10:11:23;1.00;;;1.00;;
14373;SDS011;7270;49.004;12.066;2023-03-25T10:13:52;1.10;;;1.10;;
14373;SDS011;7270;49.004;12.066;2023-03-25T10:16:23;1.10;;;1.10;;
14373;SDS011;7270;49.004;12.066;2023-03-25T10:18:55;1.10;;;1.10;;
14373;SDS011;7270;49.004;12.066;2023-03-25T10:21:27;1.10;;;1.10;;
14373;SDS011;7270;49.004;12.066;2023-03-25T10:23:57;1.00;;;1.00;;
14373;SDS011;7270;49.004;12.066;2023-03-25T10:26:29;1.00;;;1.00;;
14373;SDS011;7270;49.004;12.066;2023-03-25T10:28:57;1.00;;;1.00;;
14373;SDS011;7270;49.004;12.066;2023-03-25T10:31:28;1.10;;;1.10;;
14373;SDS011;7270;49.004;12.066;2023-03-25T10:33:58;1.00;;;1.00;;
14373;SDS011;7270;49.004;12.066;2023-03-25T10:36:27;1.50;;;1.40;;
14373;SDS011;7270;49.004;12.066;2023-03-25T10:38:54;1.10;;;1.10;;
14373;SDS011;7270;49.004;12.066;2023-03-25T10:41:22;1.00;;;1.00;;
14373;SDS011;7270;49.004;12.066;2023-03-25T10:43:49;1.40;;;1.30;;
14373;SDS011;7270;49.004;12.066;2023-03-25T10:46:17;1.20;;;1.20;;
14373;SDS011;7270;49.004;12.066;2023-03-25T10:48:45;1.00;;;1.00;;
14373;SDS011;7270;49.004;12.066;2023-03-25T10:51:14;1.00;;;1.00;;
14373;SDS011;7270;49.004;12.066;2023-03-25T10:53:41;1.00;;;1.00;;
14373;SDS011;7270;49.004;12.066;2023-03-25T10:56:10;1.20;;;1.20;;
14373;SDS011;7270;49.004;12.066;2023-03-25T10:58:38;1.33;;;1.23;;
14373;SDS011;7270;49.004;12.066;2023-03-25T11:01:09;1.10;;;1.10;;
14373;SDS011;7270;49.004;12.066;2023-03-25T11:03:35;9.93;;;9.47;;
14373;SDS011;7270;49.004;12.066;2023-03-25T11:06:04;1.27;;;1.20;;
14373;SDS011;7270;49.004;12.066;2023-03-25T11:08:32;1.00;;;1.00;;
14373;SDS011;7270;49.004;12.066;2023-03-25T11:10:59;1.13;;;1.13;;
14373;SDS011;7270;49.004;12.066;2023-03-25T11:13:26;1.10;;;1.10;;
14373;SDS011;7270;49.004;12.066;2023-03-25T11:15:54;1.10;;;1.10;;
14373;SDS011;7270;49.004;12.066;2023-03-25T11:18:23;1.20;;;1.20;;
14373;SDS011;7270;49.004;12.066;2023-03-25T11:20:52;1.00;;;1.00;;
14373;SDS011;7270;49.004;12.066;2023-03-25T11:23:21;1.20;;;1.20;;
14373;SDS011;7270;49.004;12.066;2023-03-25T11:25:50;1.10;;;1.10;;
14373;SDS011;7270;49.004;12.066;2023-03-25T11:28:18;1.10;;;1.10;;
14373;SDS011;7270;49.004;12.066;2023-03-25T11:33:31;1.20;;;1.20;;
14373;SDS011;7270;49.004;12.066;2023-03-25T11:36:08;1.30;;;1.20;;
14373;SDS011;7270;49.004;12.066;2023-03-25T11:38:35;1.60;;;1.50;;
14373;SDS011;7270;49.004;12.066;2023-03-25T11:41:04;1.70;;;1.60;;
14373;SDS011;7270;49.004;12.066;2023-03-25T11:43:32;1.63;;;1.53;;
14373;SDS011;7270;49.004;12.066;2023-03-25T11:46:05;1.60;;;1.50;;
14373;SDS011;7270;49.004;12.066;2023-03-25T11:48:34;1.60;;;1.50;;
14373;SDS011;7270;49.004;12.066;2023-03-25T11:51:02;1.50;;;1.40;;
14373;SDS011;7270;49.004;12.066;2023-03-25T11:53:32;1.60;;;1.50;;
14373;SDS011;7270;49.004;12.066;2023-03-25T11:55:59;1.30;;;1.20;;
14373;SDS011;7270;49.004;12.066;2023-03-25T11:58:31;1.30;;;1.20;;
14373;SDS011;7270;49.004;12.066;2023-03-25T12:01:00;1.33;;;1.23;;
14373;SDS011;7270;49.004;12.066;2023-03-25T12:03:28;1.20;;;1.20;;
14373;SDS011;7270;49.004;12.066;2023-03-25T12:05:56;1.23;;;1.20;;
14373;SDS011;7270;49.004;12.066;2023-03-25T12:08:22;1.27;;;1.20;;
14373;SDS011;7270;49.004;12.066;2023-03-25T12:10:51;1.40;;;1.30;;
14373;SDS011;7270;49.004;12.066;2023-03-25T12:16:09;0.90;;;0.90;;
14373;SDS011;7270;49.004;12.066;2023-03-25T12:18:53;1.10;;;1.10;;
14373;SDS011;7270;49.004;12.066;2023-03-25T12:21:27;1.00;;;1.00;;
14373;SDS011;7270;49.004;12.066;2023-03-25T12:23:58;1.10;;;1.10;;
14373;SDS011;7270;49.004;12.066;2023-03-25T12:26:33;1.17;;;1.17;;
14373;SDS011;7270;49.004;12.066;2023-03-25T12:29:06;1.07;;;1.07;;
14373;SDS011;7270;49.004;12.066;2023-03-25T12:31:38;1.10;;;1.10;;
14373;SDS011;7270;49.004;12.066;2023-03-25T12:34:08;1.00;;;1.00;;
14373;SDS011;7270;49.004;12.066;2023-03-25T12:36:42;1.10;;;1.10;;
14373;SDS011;7270;49.004;12.066;2023-03-25T12:41:55;1.10;;;1.10;;
14373;SDS011;7270;49.004;12.066;2023-03-25T12:44:30;1.30;;;1.20;;
14373;SDS011;7270;49.004;12.066;2023-03-25T12:47:03;1.10;;;1.10;;
14373;SDS011;7270;49.004;12.066;2023-03-25T12:49:36;2.10;;;2.00;;
14373;SDS011;7270;49.004;12.066;2023-03-25T12:52:07;1.40;;;1.30;;
14373;SDS011;7270;49.004;12.066;2023-03-25T12:54:40;1.43;;;1.33;;
14373;SDS011;7270;49.004;12.066;2023-03-25T12:57:10;1.50;;;1.40;;
14373;SDS011;7270;49.004;12.066;2023-03-25T13:02:31;1.30;;;1.20;;
14373;SDS011;7270;49.004;12.066;2023-03-25T13:05:09;1.40;;;1.30;;
14373;SDS011;7270;49.004;12.066;2023-03-25T13:07:39;1.40;;;1.30;;
14373;SDS011;7270;49.004;12.066;2023-03-25T13:10:11;1.20;;;1.20;;
14373;SDS011;7270;49.004;12.066;2023-03-25T13:12:39;1.20;;;1.20;;
14373;SDS011;7270;49.004;12.066;2023-03-25T13:15:12;1.70;;;1.60;;
14373;SDS011;7270;49.004;12.066;2023-03-25T13:17:43;1.80;;;1.70;;
14373;SDS011;7270;49.004;12.066;2023-03-25T13:20:11;1.90;;;1.80;;
14373;SDS011;7270;49.004;12.066;2023-03-25T13:22:39;2.20;;;2.10;;
14373;SDS011;7270;49.004;12.066;2023-03-25T13:25:09;2.07;;;1.97;;
14373;SDS011;7270;49.004;12.066;2023-03-25T13:27:41;2.10;;;2.00;;
14373;SDS011;7270;49.004;12.066;2023-03-25T13:30:12;2.10;;;2.00;;
14373;SDS011;7270;49.004;12.066;2023-03-25T13:32:40;1.83;;;1.73;;
14373;SDS011;7270;49.004;12.066;2023-03-25T13:35:14;1.90;;;1.80;;
14373;SDS011;7270;49.004;12.066;2023-03-25T13:37:42;1.70;;;1.60;;
14373;SDS011;7270;49.004;12.066;2023-03-25T13:40:16;1.87;;;1.77;;
14373;SDS011;7270;49.004;12.066;2023-03-25T13:43:00;1.73;;;1.63;;
14373;SDS011;7270;49.004;12.066;2023-03-25T13:45:28;1.90;;;1.80;;
14373;SDS011;7270;49.004;12.066;2023-03-25T13:47:58;1.80;;;1.70;;
14373;SDS011;7270;49.004;12.066;2023-03-25T13:53:07;1.80;;;1.70;;
14373;SDS011;7270;49.004;12.066;2023-03-25T13:55:36;1.60;;;1.50;;
14373;SDS011;7270;49.004;12.066;2023-03-25T13:58:22;1.70;;;1.60;;
14373;SDS011;7270;49.004;12.066;2023-03-25T14:01:08;1.70;;;1.60;;
14373;SDS011;7270;49.004;12.066;2023-03-25T14:06:33;1.50;;;1.40;;
14373;SDS011;7270;49.004;12.066;2023-03-25T14:11:59;1.40;;;1.30;;
14373;SDS011;7270;49.004;12.066;2023-03-25T14:14:26;1.40;;;1.30;;
14373;SDS011;7270;49.004;12.066;2023-03-25T14:16:55;1.23;;;1.20;;
14373;SDS011;7270;49.004;12.066;2023-03-25T14:19:26;1.20;;;1.20;;
14373;SDS011;7270;49.004;12.066;2023-03-25T14:21:53;1.23;;;1.20;;
14373;SDS011;7270;49.004;12.066;2023-03-25T14:24:23;1.00;;;1.00;;
14373;SDS011;7270;49.004;12.066;2023-03-25T14:26:51;1.20;;;1.20;;
14373;SDS011;7270;49.004;12.066;2023-03-25T14:29:36;1.10;;;1.10;;
14373;SDS011;7270;49.004;12.066;2023-03-25T14:32:04;1.00;;;1.00;;
14373;SDS011;7270;49.004;12.066;2023-03-25T14:34:37;1.30;;;1.20;;
14373;SDS011;7270;49.004;12.066;2023-03-25T14:37:14;1.13;;;1.13;;
14373;SDS011;7270;49.004;12.066;2023-03-25T14:39:41;1.10;;;1.10;;
14373;SDS011;7270;49.004;12.066;2023-03-25T14:42:10;1.10;;;1.10;;
14373;SDS011;7270;49.004;12.066;2023-03-25T14:44:40;1.10;;;1.10;;
14373;SDS011;7270;49.004;12.066;2023-03-25T14:47:26;1.23;;;1.23;;
14373;SDS011;7270;49.004;12.066;2023-03-25T14:50:00;1.10;;;1.10;;
14373;SDS011;7270;49.004;12.066;2023-03-25T14:52:29;1.10;;;1.10;;
14373;SDS011;7270;49.004;12.066;2023-03-25T14:54:56;1.13;;;1.13;;
14373;SDS011;7270;49.004;12.066;2023-03-25T14:57:24;1.27;;;1.20;;
14373;SDS011;7270;49.004;12.066;2023-03-25T14:59:54;1.20;;;1.20;;
14373;SDS011;7270;49.004;12.066;2023-03-25T15:02:23;1.20;;;1.20;;
14373;SDS011;7270;49.004;12.066;2023-03-25T15:04:51;1.40;;;1.30;;
14373;SDS011;7270;49.004;12.066;2023-03-25T15:07:19;1.30;;;1.20;;
14373;SDS011;7270;49.004;12.066;2023-03-25T15:10:03;1.20;;;1.20;;
14373;SDS011;7270;49.004;12.066;2023-03-25T15:12:30;1.10;;;1.10;;
14373;SDS011;7270;49.004;12.066;2023-03-25T15:15:05;1.30;;;1.20;;
14373;SDS011;7270;49.004;12.066;2023-03-25T15:17:38;1.40;;;1.30;;
14373;SDS011;7270;49.004;12.066;2023-03-25T15:20:26;1.20;;;1.20;;
14373;SDS011;7270;49.004;12.066;2023-03-25T15:25:38;1.30;;;1.20;;
14373;SDS011;7270;49.004;12.066;2023-03-25T15:28:07;1.30;;;1.20;;
14373;SDS011;7270;49.004;12.066;2023-03-25T15:30:55;1.40;;;1.30;;
14373;SDS011;7270;49.004;12.066;2023-03-25T15:33:28;1.40;;;1.30;;